Time;durP1;ratioP1;P1;durP2;ratioP2;P2;SDS_P1;SDS_P2;PMS_P1;PMS_P2;Temp;Humidity;BMP_temperature;BMP_pressure;BME280_temperature;BME280_humidity;BME280_pressure;Samples;Min_cycle;Max_cycle;Signal;HPM_P1;HPM_P2
2023/05/17 00:01:16;;;;;;;13.45;3.55;;;;;;;13.96;65.06;102654.41;5090058;28;20035;-48
2023/05/17 00:03:41;;;;;;;14.23;3.97;;;;;;;14.09;64.85;102653.88;5089491;28;20097;-49
2023/05/17 00:06:07;;;;;;;11.77;3.15;;;;;;;14.21;64.47;102650.69;5089480;28;20129;-48
2023/05/17 00:08:32;;;;;;;14.60;3.55;;;;;;;14.12;64.53;102659.22;5089399;28;20498;-45
2023/05/17 00:10:58;;;;;;;11.27;3.42;;;;;;;14.18;64.36;102648.91;5089273;28;20067;-48
2023/05/17 00:13:23;;;;;;;12.75;3.60;;;;;;;14.04;64.27;102654.59;5089420;28;20028;-47
2023/05/17 00:15:48;;;;;;;9.95;3.30;;;;;;;13.91;65.42;102666.50;5089737;28;20114;-46
2023/05/17 00:18:14;;;;;;;12.10;4.03;;;;;;;13.90;65.38;102669.97;5089340;28;21103;-46
2023/05/17 00:20:39;;;;;;;14.10;4.03;;;;;;;14.06;64.74;102666.03;5089137;28;20060;-46
2023/05/17 00:23:04;;;;;;;11.90;3.80;;;;;;;14.11;64.75;102670.56;5089354;28;20235;-52
2023/05/17 00:25:30;;;;;;;13.93;3.90;;;;;;;13.87;65.47;102667.25;5088926;28;20024;-46
2023/05/17 00:27:55;;;;;;;13.95;3.70;;;;;;;14.04;65.14;102671.22;5089022;28;20046;-45
2023/05/17 00:30:20;;;;;;;11.48;3.50;;;;;;;14.18;64.42;102662.03;5089024;28;20110;-45
2023/05/17 00:32:47;;;;;;;9.82;3.50;;;;;;;14.33;63.77;102656.31;5089244;28;20469;-49
2023/05/17 00:35:12;;;;;;;12.07;3.50;;;;;;;14.00;64.69;102656.28;5088955;28;20118;-46
2023/05/17 00:37:38;;;;;;;20.88;3.65;;;;;;;13.99;64.85;102661.47;5089895;28;20108;-45
2023/05/17 00:40:04;;;;;;;11.98;3.65;;;;;;;14.19;64.17;102658.56;5090587;28;20241;-45
2023/05/17 00:42:30;;;;;;;14.45;4.07;;;;;;;14.12;64.14;102663.59;5089512;28;20036;-52
2023/05/17 00:44:55;;;;;;;12.02;3.38;;;;;;;14.06;64.38;102660.78;5089441;28;20032;-46
2023/05/17 00:47:21;;;;;;;13.57;3.78;;;;;;;14.05;64.78;102664.25;5089114;28;20097;-46
2023/05/17 00:49:46;;;;;;;12.25;3.58;;;;;;;14.17;63.91;102665.47;5089242;28;20028;-49
2023/05/17 00:52:12;;;;;;;12.23;3.50;;;;;;;14.20;63.75;102651.56;5088611;28;20044;-51
2023/05/17 00:54:38;;;;;;;12.13;3.83;;;;;;;14.06;64.46;102658.16;5088696;28;20132;-46
2023/05/17 00:57:05;;;;;;;12.27;3.55;;;;;;;14.05;64.16;102661.63;5089467;28;20070;-44
2023/05/17 00:59:30;;;;;;;13.82;3.63;;;;;;;14.00;64.20;102666.75;5088905;28;20056;-50
2023/05/17 01:01:57;;;;;;;10.65;3.67;;;;;;;14.02;63.84;102669.44;5088508;28;20067;-44
2023/05/17 01:04:23;;;;;;;9.82;3.53;;;;;;;13.94;63.96;102652.59;5088436;28;20436;-44
2023/05/17 01:06:49;;;;;;;11.80;3.72;;;;;;;14.00;64.08;102652.75;5088786;28;20478;-51
2023/05/17 01:09:15;;;;;;;11.73;3.63;;;;;;;13.98;64.54;102657.94;5088859;28;20103;-47
2023/05/17 01:12:05;;;;;;;14.13;3.50;;;;;;;13.96;64.63;102646.56;5088330;28;20127;-52
2023/05/17 01:14:31;;;;;;;12.52;3.30;;;;;;;14.05;64.39;102648.53;5088424;28;20024;-49
2023/05/17 01:17:03;;;;;;;9.77;3.20;;;;;;;14.07;64.43;102652.09;5088315;28;20444;-48
2023/05/17 01:19:34;;;;;;;11.50;3.58;;;;;;;13.99;65.31;102651.88;5088464;28;20039;-46
2023/05/17 01:22:14;;;;;;;7.20;3.30;;;;;;;14.02;65.21;102657.22;5088161;28;20118;-49
2023/05/17 01:24:59;;;;;;;14.75;3.33;;;;;;;14.08;65.09;102653.88;5088918;28;20036;-49
2023/05/17 01:27:27;;;;;;;9.77;3.17;;;;;;;14.15;65.14;102656.69;5088109;28;20043;-48
2023/05/17 01:29:55;;;;;;;11.18;3.25;;;;;;;14.20;65.15;102647.22;5088454;28;20035;-44
2023/05/17 01:32:21;;;;;;;10.13;3.50;;;;;;;14.27;65.07;102652.63;5088105;28;20036;-44
2023/05/17 01:34:46;;;;;;;10.18;3.08;;;;;;;14.14;65.56;102661.91;5088675;28;20035;-47
2023/05/17 01:37:12;;;;;;;11.20;3.38;;;;;;;14.30;65.03;102658.84;5088677;28;20044;-44
2023/05/17 01:39:37;;;;;;;12.60;3.45;;;;;;;14.23;64.99;102663.03;5088338;28;20442;-45
2023/05/17 01:42:11;;;;;;;11.85;3.38;;;;;;;14.16;65.13;102666.31;5088147;28;20028;-45
2023/05/17 01:44:44;;;;;;;17.35;3.60;;;;;;;14.20;64.88;102668.22;5088435;28;20028;-49
2023/05/17 01:47:19;;;;;;;11.05;3.45;;;;;;;14.29;64.50;102662.31;5088159;28;20038;-46
2023/05/17 01:49:50;;;;;;;15.02;3.53;;;;;;;14.22;64.56;102658.63;5088437;28;20032;-47
2023/05/17 01:52:27;;;;;;;11.20;3.40;;;;;;;14.29;64.89;102671.91;5087971;28;20036;-47
2023/05/17 01:55:10;;;;;;;8.40;3.15;;;;;;;14.33;64.69;102668.53;5087587;28;20028;-44
2023/05/17 01:57:36;;;;;;;12.50;3.85;;;;;;;14.44;64.58;102662.75;5088060;28;20185;-46
2023/05/17 02:00:05;;;;;;;10.98;3.83;;;;;;;14.42;64.75;102663.53;5088052;28;20409;-47
2023/05/17 02:02:30;;;;;;;10.18;3.28;;;;;;;14.40;65.03;102665.22;5087862;28;20036;-44
2023/05/17 02:04:57;;;;;;;11.82;3.42;;;;;;;14.43;65.12;102663.59;5088080;28;20468;-45
2023/05/17 02:07:22;;;;;;;10.45;3.03;;;;;;;14.46;65.31;102662.75;5088148;28;20036;-43
2023/05/17 02:09:48;;;;;;;12.50;3.55;;;;;;;14.47;65.38;102661.91;5089147;28;20039;-45
2023/05/17 02:12:13;;;;;;;13.93;3.35;;;;;;;14.51;65.06;102661.19;5088631;28;20411;-45
2023/05/17 02:14:38;;;;;;;10.40;3.35;;;;;;;14.44;65.35;102656.63;5088321;28;20097;-44
2023/05/17 02:17:04;;;;;;;9.65;3.20;;;;;;;14.76;64.51;102660.91;5090111;28;20028;-43
2023/05/17 02:19:30;;;;;;;12.25;3.40;;;;;;;14.72;64.38;102653.81;5092263;28;20501;-43
2023/05/17 02:21:55;;;;;;;12.30;3.33;;;;;;;14.72;64.35;102647.69;5094277;28;20036;-44
2023/05/17 02:24:21;;;;;;;10.55;3.15;;;;;;;14.73;64.19;102654.72;5094149;28;20088;-45
2023/05/17 02:26:47;;;;;;;14.63;3.22;;;;;;;14.78;64.02;102647.84;5093604;28;20028;-44
2023/05/17 02:29:12;;;;;;;11.65;3.33;;;;;;;14.84;64.01;102655.84;5093360;28;20126;-49
2023/05/17 02:31:38;;;;;;;10.07;3.40;;;;;;;14.89;63.61;102655.13;5092865;28;20070;-45
2023/05/17 02:34:03;;;;;;;13.50;3.30;;;;;;;14.78;64.26;102663.59;5092551;28;20028;-45
2023/05/17 02:36:29;;;;;;;11.85;3.55;;;;;;;14.76;64.42;102662.69;5091901;28;20051;-44
2023/05/17 02:38:54;;;;;;;8.20;3.13;;;;;;;14.74;64.54;102664.38;5092319;28;20097;-44
2023/05/17 02:41:20;;;;;;;13.98;3.80;;;;;;;14.70;65.30;102666.00;5093338;28;20036;-41
2023/05/17 02:43:45;;;;;;;7.43;3.03;;;;;;;14.89;64.01;102667.34;5092107;28;20032;-45
2023/05/17 02:46:10;;;;;;;10.80;3.85;;;;;;;14.40;65.13;102666.13;5091600;28;20097;-44
2023/05/17 02:48:35;;;;;;;15.15;3.40;;;;;;;14.44;65.46;102667.09;5091370;28;20036;-48
2023/05/17 02:51:01;;;;;;;12.18;3.47;;;;;;;14.52;65.66;102668.16;5091076;28;20024;-46
2023/05/17 02:53:26;;;;;;;9.80;3.60;;;;;;;14.53;65.27;102668.22;5090958;28;20051;-44
2023/05/17 02:55:51;;;;;;;12.52;3.47;;;;;;;14.78;64.01;102667.09;5090881;28;20406;-48
2023/05/17 02:58:17;;;;;;;8.75;3.13;;;;;;;14.60;64.77;102667.53;5091504;28;20059;-45
2023/05/17 03:00:45;;;;;;;14.32;4.03;;;;;;;14.49;65.53;102674.25;5090937;28;20100;-47
2023/05/17 03:03:10;;;;;;;12.93;3.80;;;;;;;14.43;65.80;102681.97;5090912;28;20039;-48
2023/05/17 03:05:36;;;;;;;10.23;3.40;;;;;;;14.60;65.14;102675.41;5090751;28;20040;-46
2023/05/17 03:08:01;;;;;;;12.05;3.70;;;;;;;14.49;65.56;102683.84;5090566;28;20051;-45
2023/05/17 03:10:26;;;;;;;11.45;3.70;;;;;;;14.49;65.23;102679.50;5090286;28;20059;-48
2023/05/17 03:12:51;;;;;;;10.15;3.28;;;;;;;14.61;65.21;102678.91;5090543;28;20101;-45
2023/05/17 03:15:17;;;;;;;11.40;3.40;;;;;;;14.71;64.42;102680.91;5091132;28;20059;-47
2023/05/17 03:17:42;;;;;;;9.70;3.42;;;;;;;14.67;64.76;102679.06;5090633;28;20024;-45
2023/05/17 03:20:08;;;;;;;12.45;3.58;;;;;;;14.53;65.14;102678.72;5090636;28;20028;-44
2023/05/17 03:22:33;;;;;;;11.55;3.60;;;;;;;14.66;64.63;102682.53;5090548;28;20032;-47
2023/05/17 03:24:59;;;;;;;10.05;3.40;;;;;;;14.58;64.60;102682.34;5090880;28;20490;-44
2023/05/17 03:27:24;;;;;;;7.43;3.15;;;;;;;14.56;65.08;102685.78;5090772;28;20077;-44
2023/05/17 03:29:49;;;;;;;11.50;3.40;;;;;;;14.61;64.77;102674.56;5090629;28;20032;-49
2023/05/17 03:32:14;;;;;;;6.95;2.97;;;;;;;14.70;64.71;102681.75;5089965;28;20111;-45
2023/05/17 03:34:40;;;;;;;11.32;3.05;;;;;;;14.86;63.79;102683.94;5090133;28;20040;-46
2023/05/17 03:37:05;;;;;;;10.55;3.30;;;;;;;14.74;64.04;102688.00;5090813;28;20035;-44
2023/05/17 03:39:30;;;;;;;8.93;3.28;;;;;;;14.72;63.50;102695.81;5090570;28;20031;-47
2023/05/17 03:41:56;;;;;;;8.20;3.10;;;;;;;14.72;63.50;102701.06;5090031;28;20467;-45
2023/05/17 03:44:21;;;;;;;9.00;3.33;;;;;;;14.69;63.82;102697.50;5091087;28;20102;-45
2023/05/17 03:46:46;;;;;;;10.50;2.88;;;;;;;14.70;63.84;102702.75;5091448;28;20035;-47
2023/05/17 03:49:11;;;;;;;8.10;2.60;;;;;;;14.61;63.00;102695.56;5091607;28;20032;-42
2023/05/17 03:51:37;;;;;;;11.05;2.80;;;;;;;14.46;62.72;102704.75;5090211;28;20036;-46
2023/05/17 03:54:02;;;;;;;7.20;2.50;;;;;;;14.48;62.03;102711.84;5091440;28;20032;-43
2023/05/17 03:56:28;;;;;;;10.90;2.60;;;;;;;14.39;61.63;102708.97;5091285;28;20028;-43
2023/05/17 03:58:53;;;;;;;10.55;2.65;;;;;;;14.55;61.22;102705.00;5091174;28;20051;-43
2023/05/17 04:01:19;;;;;;;9.90;2.58;;;;;;;14.44;61.09;102711.72;5091946;28;20032;-43
2023/05/17 04:03:45;;;;;;;10.10;2.28;;;;;;;14.26;60.79;102713.81;5091351;28;20089;-43
2023/05/17 04:06:13;;;;;;;9.52;2.58;;;;;;;14.32;60.68;102716.59;5091221;28;20096;-44
2023/05/17 04:08:39;;;;;;;10.23;3.08;;;;;;;14.36;60.54;102718.44;5091049;28;20047;-40
2023/05/17 04:11:12;;;;;;;15.52;2.70;;;;;;;14.32;60.57;102714.88;5090388;28;20032;-41
2023/05/17 04:13:41;;;;;;;12.68;2.83;;;;;;;14.08;61.13;102716.81;5091015;28;20050;-41
2023/05/17 04:16:07;;;;;;;11.40;2.60;;;;;;;14.37;60.24;102730.72;5090837;28;20035;-44
2023/05/17 04:18:34;;;;;;;12.52;2.80;;;;;;;14.33;59.98;102729.78;5090382;28;20086;-44
2023/05/17 04:21:00;;;;;;;11.55;2.70;;;;;;;14.48;59.59;102731.94;5089548;28;20490;-47
2023/05/17 04:23:25;;;;;;;13.82;2.50;;;;;;;14.37;60.16;102736.91;5090764;28;20028;-45
2023/05/17 04:25:51;;;;;;;14.93;2.90;;;;;;;14.41;59.75;102730.88;5090620;28;20028;-45
2023/05/17 04:28:17;;;;;;;11.60;2.58;;;;;;;14.27;59.97;102747.97;5090285;28;20517;-46
2023/05/17 04:30:43;;;;;;;13.20;2.72;;;;;;;14.33;60.18;102749.88;5088977;28;20032;-44
2023/05/17 04:33:08;;;;;;;8.25;2.47;;;;;;;14.40;59.79;102751.81;5090905;28;20085;-42
2023/05/17 04:35:35;;;;;;;14.30;2.72;;;;;;;14.25;60.37;102757.53;5090880;28;20032;-43
2023/05/17 04:38:00;;;;;;;13.18;3.00;;;;;;;14.33;59.82;102760.38;5087775;28;20441;-44
2023/05/17 04:40:25;;;;;;;11.25;2.30;;;;;;;14.48;59.56;102768.69;5088698;28;20051;-47
2023/05/17 04:42:51;;;;;;;11.68;2.58;;;;;;;14.48;59.43;102769.56;5088431;28;20152;-45
2023/05/17 04:45:16;;;;;;;13.18;2.97;;;;;;;14.47;59.29;102764.28;5089139;28;20039;-47
2023/05/17 04:47:42;;;;;;;12.15;2.80;;;;;;;14.39;59.36;102771.06;5088982;28;20405;-46
2023/05/17 04:50:08;;;;;;;10.15;2.40;;;;;;;14.59;59.12;102773.38;5088963;28;20024;-49
2023/05/17 04:52:33;;;;;;;11.05;2.60;;;;;;;14.39;59.22;102776.31;5088740;28;20040;-45
2023/05/17 04:54:58;;;;;;;12.93;2.67;;;;;;;14.32;59.36;102783.09;5088836;28;20070;-47
2023/05/17 04:57:24;;;;;;;13.45;2.78;;;;;;;14.62;58.57;102775.19;5088838;28;20059;-48
2023/05/17 04:59:49;;;;;;;16.67;2.95;;;;;;;14.54;58.80;102795.09;5089162;28;20568;-44
2023/05/17 05:02:15;;;;;;;12.73;2.80;;;;;;;14.77;58.19;102796.59;5088530;28;20490;-45
2023/05/17 05:04:40;;;;;;;11.77;2.63;;;;;;;14.95;57.62;102794.47;5088548;28;20039;-52
2023/05/17 05:07:05;;;;;;;14.10;2.92;;;;;;;15.05;57.80;102792.97;5088695;28;20039;-47
2023/05/17 05:09:30;;;;;;;12.10;2.30;;;;;;;15.17;56.87;102798.53;5088225;28;20052;-47
2023/05/17 05:11:56;;;;;;;13.63;2.53;;;;;;;15.73;55.36;102806.94;5088214;28;20433;-46
2023/05/17 05:14:21;;;;;;;15.88;2.67;;;;;;;16.40;53.73;102803.13;5088128;28;20032;-49
2023/05/17 05:16:46;;;;;;;10.63;2.97;;;;;;;17.20;50.22;102803.75;5089064;28;20028;-50
2023/05/17 05:19:12;;;;;;;16.67;3.08;;;;;;;18.15;48.80;102809.59;5088480;28;20043;-49
2023/05/17 05:21:37;;;;;;;14.00;3.08;;;;;;;18.65;46.96;102807.59;5088188;28;20123;-48
2023/05/17 05:24:03;;;;;;;19.08;3.75;;;;;;;19.47;44.72;102805.72;5088192;28;20028;-47
2023/05/17 05:26:29;;;;;;;15.95;2.95;;;;;;;19.79;42.87;102805.94;5088362;28;20035;-45
2023/05/17 05:28:54;;;;;;;10.38;2.42;;;;;;;20.69;41.55;102811.63;5088121;28;20044;-48
2023/05/17 05:31:20;;;;;;;11.20;2.35;;;;;;;21.01;40.54;102812.56;5088447;28;20046;-44
2023/05/17 05:33:45;;;;;;;13.88;2.85;;;;;;;21.32;38.65;102816.16;5088166;28;20517;-47
2023/05/17 05:36:10;;;;;;;10.45;2.22;;;;;;;21.75;38.42;102817.00;5088309;28;20425;-46
2023/05/17 05:38:36;;;;;;;11.15;2.33;;;;;;;21.89;37.54;102820.50;5088212;28;20064;-48
2023/05/17 05:41:01;;;;;;;13.65;2.97;;;;;;;21.74;37.56;102818.75;5088123;28;20035;-47
2023/05/17 05:43:26;;;;;;;10.57;2.45;;;;;;;21.83;37.85;102828.50;5088130;28;20055;-48
2023/05/17 05:45:52;;;;;;;10.65;2.25;;;;;;;21.93;38.00;102832.88;5087982;28;20043;-51
2023/05/17 05:48:17;;;;;;;13.60;2.42;;;;;;;21.93;38.27;102839.97;5088484;28;20039;-46
2023/05/17 05:50:43;;;;;;;9.43;2.20;;;;;;;22.65;35.65;102837.03;5087965;28;20036;-48
2023/05/17 05:53:09;;;;;;;8.95;2.20;;;;;;;22.81;34.42;102834.34;5087924;28;20080;-46
2023/05/17 05:55:34;;;;;;;11.93;2.38;;;;;;;22.31;35.57;102848.75;5090120;28;20073;-49
2023/05/17 05:58:00;;;;;;;11.05;2.28;;;;;;;21.60;36.61;102847.09;5091689;28;20024;-46
2023/05/17 06:00:25;;;;;;;13.60;2.50;;;;;;;20.78;38.62;102849.66;5091511;28;20063;-43
2023/05/17 06:02:52;;;;;;;10.43;2.25;;;;;;;21.24;38.00;102850.63;5091786;28;20115;-46
2023/05/17 06:05:18;;;;;;;11.82;2.20;;;;;;;22.21;35.68;102850.53;5092018;28;20374;-46
2023/05/17 06:07:43;;;;;;;8.65;2.22;;;;;;;22.77;34.09;102860.06;5091766;28;20133;-48
2023/05/17 06:10:09;;;;;;;9.18;2.10;;;;;;;22.58;34.80;102845.94;5091531;28;20486;-48
2023/05/17 06:12:34;;;;;;;11.80;2.33;;;;;;;21.80;35.83;102852.38;5091664;28;20127;-45
2023/05/17 06:14:59;;;;;;;12.43;2.30;;;;;;;20.85;37.00;102863.81;5091512;28;20105;-47
2023/05/17 06:17:25;;;;;;;13.23;2.40;;;;;;;22.62;34.05;102866.31;5092049;28;20083;-44
2023/05/17 06:19:51;;;;;;;9.57;2.20;;;;;;;23.05;33.86;102858.97;5092482;28;20197;-45
2023/05/17 06:22:16;;;;;;;10.10;2.20;;;;;;;24.16;32.29;102860.63;5092105;28;20028;-45
2023/05/17 06:24:42;;;;;;;11.00;2.35;;;;;;;24.05;31.81;102861.66;5091681;28;20036;-50
2023/05/17 06:27:07;;;;;;;11.77;1.98;;;;;;;23.10;32.44;102858.97;5091690;28;20032;-43
2023/05/17 06:29:33;;;;;;;13.63;2.28;;;;;;;22.17;34.70;102872.69;5091878;28;20119;-45
2023/05/17 06:31:58;;;;;;;7.10;1.88;;;;;;;22.93;33.55;102867.03;5091692;28;20145;-48
2023/05/17 06:34:24;;;;;;;11.48;2.28;;;;;;;24.29;30.61;102858.75;5091192;28;20678;-47
2023/05/17 06:36:49;;;;;;;8.05;1.90;;;;;;;24.02;30.78;102864.38;5091641;28;20038;-51
2023/05/17 06:39:15;;;;;;;7.82;2.00;;;;;;;23.69;31.85;102862.94;5091271;28;20032;-49
2023/05/17 06:41:40;;;;;;;6.93;1.80;;;;;;;22.72;32.10;102869.84;5091182;28;20039;-45
2023/05/17 06:44:06;;;;;;;12.95;2.00;;;;;;;22.32;33.49;102873.53;5091378;28;20506;-49
2023/05/17 06:46:31;;;;;;;9.43;2.15;;;;;;;21.42;34.74;102874.53;5091050;28;20040;-49
2023/05/17 06:48:57;;;;;;;14.27;2.80;;;;;;;19.47;39.02;102881.53;5090591;28;20032;-46
2023/05/17 06:51:22;;;;;;;13.15;2.55;;;;;;;18.96;40.32;102881.06;5090611;28;20032;-44
2023/05/17 06:53:47;;;;;;;14.43;2.88;;;;;;;18.52;41.30;102884.88;5091747;28;20036;-50
2023/05/17 06:56:13;;;;;;;12.05;2.33;;;;;;;17.95;43.11;102896.41;5090994;28;20085;-47
2023/05/17 06:58:38;;;;;;;14.40;2.67;;;;;;;18.63;41.24;102894.75;5091006;28;20039;-45
2023/05/17 07:01:04;;;;;;;12.85;2.47;;;;;;;18.09;41.82;102907.19;5091005;28;20540;-48
2023/05/17 07:03:30;;;;;;;15.25;2.50;;;;;;;17.84;42.27;102909.44;5090895;28;20040;-50
2023/05/17 07:05:55;;;;;;;16.63;2.55;;;;;;;18.27;41.01;102901.28;5090225;28;20035;-46
2023/05/17 07:08:20;;;;;;;12.70;2.40;;;;;;;19.44;40.00;102906.19;5090941;28;20028;-41
2023/05/17 07:10:45;;;;;;;12.82;2.50;;;;;;;20.41;37.95;102901.66;5090448;28;20043;-45
2023/05/17 07:13:11;;;;;;;11.32;2.20;;;;;;;21.83;34.84;102905.50;5090543;28;20122;-44
2023/05/17 07:15:37;;;;;;;7.88;1.83;;;;;;;22.43;32.83;102895.63;5090843;28;20034;-48
2023/05/17 07:18:03;;;;;;;14.55;2.10;;;;;;;23.48;32.41;102895.09;5090402;28;20028;-49
2023/05/17 07:20:28;;;;;;;10.98;2.03;;;;;;;23.53;32.06;102895.94;5090257;28;20062;-43
2023/05/17 07:22:53;;;;;;;8.60;2.15;;;;;;;22.95;32.32;102902.50;5090291;28;20032;-47
2023/05/17 07:25:20;;;;;;;7.97;1.95;;;;;;;22.73;32.89;102910.59;5091154;28;20089;-46
2023/05/17 07:27:45;;;;;;;11.05;1.92;;;;;;;19.92;37.18;102907.50;5090150;28;20035;-48
2023/05/17 07:30:11;;;;;;;12.93;2.13;;;;;;;18.44;40.73;102920.88;5090238;28;20040;-50
2023/05/17 07:32:37;;;;;;;10.32;2.00;;;;;;;18.18;39.91;102923.13;5089998;28;20039;-45
2023/05/17 07:35:02;;;;;;;9.10;2.08;;;;;;;18.50;40.17;102921.84;5089948;28;20043;-45
2023/05/17 07:37:27;;;;;;;12.13;2.13;;;;;;;19.19;38.33;102925.34;5089918;28;20494;-47
2023/05/17 07:39:53;;;;;;;11.18;2.00;;;;;;;20.03;37.78;102934.91;5089896;28;20170;-47
2023/05/17 07:42:18;;;;;;;10.48;1.98;;;;;;;20.03;36.79;102926.97;5090080;28;20032;-45
2023/05/17 07:44:43;;;;;;;9.23;1.80;;;;;;;21.36;34.56;102935.56;5089037;28;20398;-50
2023/05/17 07:47:09;;;;;;;7.65;1.95;;;;;;;21.64;34.15;102933.81;5088901;28;20658;-46
2023/05/17 07:49:34;;;;;;;9.98;2.35;;;;;;;20.45;35.92;102936.97;5089952;28;20044;-45
2023/05/17 07:52:01;;;;;;;7.75;1.90;;;;;;;20.81;34.96;102937.13;5088933;28;20494;-46
2023/05/17 07:54:26;;;;;;;11.15;1.80;;;;;;;21.51;33.45;102937.34;5089487;28;20061;-44
2023/05/17 07:56:54;;;;;;;8.55;1.90;;;;;;;21.06;34.10;102941.66;5089532;28;20032;-45
2023/05/17 07:59:20;;;;;;;6.75;1.48;;;;;;;21.65;32.65;102932.91;5090268;28;20044;-45
2023/05/17 08:01:45;;;;;;;8.18;1.63;;;;;;;21.48;33.35;102941.75;5088546;28;20040;-46
2023/05/17 08:04:13;;;;;;;6.55;1.70;;;;;;;22.27;31.91;102940.84;5087046;28;20035;-47
2023/05/17 08:06:38;;;;;;;10.35;1.73;;;;;;;22.11;32.17;102944.44;5088712;28;20375;-49
2023/05/17 08:09:03;;;;;;;6.55;1.52;;;;;;;23.36;29.04;102938.63;5089594;28;20122;-47
2023/05/17 08:11:30;;;;;;;7.00;1.50;;;;;;;23.70;28.80;102941.94;5088966;28;20402;-51
2023/05/17 08:13:55;;;;;;;7.60;1.60;;;;;;;23.68;29.11;102938.38;5088934;28;20371;-47
2023/05/17 08:16:20;;;;;;;8.35;1.60;;;;;;;23.13;30.35;102941.41;5088588;28;20036;-43
2023/05/17 08:18:46;;;;;;;6.65;1.27;;;;;;;23.00;31.24;102947.69;5088962;28;20120;-47
2023/05/17 08:21:11;;;;;;;9.07;1.70;;;;;;;23.59;29.74;102946.47;5089448;28;20115;-46
2023/05/17 08:23:36;;;;;;;6.35;1.60;;;;;;;21.30;33.89;102956.75;5089365;28;20697;-50
2023/05/17 08:26:02;;;;;;;8.95;1.60;;;;;;;19.56;35.47;102959.25;5088985;28;20036;-47
2023/05/17 08:28:27;;;;;;;9.88;1.50;;;;;;;18.42;38.82;102960.47;5089137;28;20037;-48
2023/05/17 08:30:52;;;;;;;10.82;1.80;;;;;;;18.08;39.57;102963.47;5089302;28;20062;-46
2023/05/17 08:33:19;;;;;;;7.68;1.65;;;;;;;17.91;37.37;102964.97;5089490;28;20040;-49
2023/05/17 08:35:45;;;;;;;9.95;1.65;;;;;;;17.96;37.36;102960.63;5089106;28;20039;-48
2023/05/17 08:38:10;;;;;;;8.73;1.60;;;;;;;17.99;37.08;102958.94;5089396;28;20044;-50
2023/05/17 08:40:35;;;;;;;9.48;1.67;;;;;;;17.96;37.63;102958.00;5088782;28;20070;-45
2023/05/17 08:43:01;;;;;;;9.52;1.70;;;;;;;17.35;38.66;102968.34;5088885;28;20036;-48
2023/05/17 08:45:30;;;;;;;8.55;1.60;;;;;;;17.94;37.36;102954.44;5088890;28;20028;-49
2023/05/17 08:47:55;;;;;;;10.20;1.60;;;;;;;18.16;38.76;102969.78;5089013;28;20058;-48
2023/05/17 08:50:20;;;;;;;9.43;1.65;;;;;;;17.99;38.78;102956.28;5088919;28;20048;-43
2023/05/17 08:52:46;;;;;;;7.03;1.75;;;;;;;17.73;38.58;102961.16;5088833;28;20130;-45
2023/05/17 08:55:15;;;;;;;5.53;1.40;;;;;;;17.50;38.96;102956.31;5086801;28;20074;-48
2023/05/17 08:57:41;;;;;;;7.03;1.58;;;;;;;17.91;38.01;102952.66;5088755;28;20032;-46
2023/05/17 09:00:13;;;;;;;6.53;1.50;;;;;;;17.90;36.55;102960.53;5089269;28;20043;-46
2023/05/17 09:02:40;;;;;;;8.68;1.80;;;;;;;17.50;37.87;102961.59;5089208;28;20032;-44
2023/05/17 09:05:07;;;;;;;11.77;1.98;;;;;;;17.90;37.54;102958.78;5087105;28;20077;-45
2023/05/17 09:07:33;;;;;;;7.63;1.63;;;;;;;17.60;38.90;102964.44;5088863;28;20066;-45
2023/05/17 09:09:58;;;;;;;9.10;1.65;;;;;;;17.80;38.18;102965.69;5089801;28;20055;-44
2023/05/17 09:12:23;;;;;;;8.48;1.70;;;;;;;18.01;38.00;102962.50;5089219;28;20067;-48
2023/05/17 09:26:38;;;;;;;10.73;2.40;;;;;;;17.27;41.12;102961.13;5078399;27;20760;-45
2023/05/17 09:29:08;;;;;;;12.70;2.05;;;;;;;17.52;41.18;102967.75;5086103;28;20032;-44
2023/05/17 09:31:34;;;;;;;11.60;1.83;;;;;;;17.32;40.80;102963.00;5085441;28;20036;-47
2023/05/17 09:33:59;;;;;;;9.52;1.70;;;;;;;16.98;41.31;102968.47;5085617;28;20032;-47
2023/05/17 09:36:25;;;;;;;7.93;1.83;;;;;;;17.34;40.43;102974.47;5086110;28;20066;-49
2023/05/17 09:39:04;;;;;;;8.55;1.77;;;;;;;17.78;39.65;102962.13;5085998;28;20032;-49
2023/05/17 09:41:40;;;;;;;8.88;1.90;;;;;;;17.79;37.92;102969.19;5085446;28;20032;-49
2023/05/17 09:44:08;;;;;;;12.48;1.92;;;;;;;17.75;38.76;102969.06;5085530;28;20047;-49
2023/05/17 09:46:34;;;;;;;7.03;1.55;;;;;;;17.34;39.20;102977.13;5085418;28;20039;-43
2023/05/17 09:49:02;;;;;;;10.73;1.88;;;;;;;17.16;37.85;102973.22;5085646;28;20032;-45
2023/05/17 09:51:36;;;;;;;7.38;1.50;;;;;;;17.70;39.75;102968.13;5085562;28;20037;-50
2023/05/17 09:54:02;;;;;;;9.55;1.80;;;;;;;17.64;36.87;102974.19;5085607;28;20043;-45
2023/05/17 09:56:30;;;;;;;15.52;3.72;;;;;;;17.66;38.50;102979.50;5085319;28;20028;-45
2023/05/17 09:58:57;;;;;;;8.13;1.92;;;;;;;17.89;39.06;102972.84;5085413;28;20502;-46
2023/05/17 10:01:27;;;;;;;10.48;1.60;;;;;;;18.39;35.81;102980.66;5085418;28;20071;-45
2023/05/17 10:03:53;;;;;;;9.10;1.50;;;;;;;17.90;37.71;102979.00;5085352;28;20336;-46
2023/05/17 10:06:21;;;;;;;9.65;1.73;;;;;;;17.48;38.77;102984.41;5085637;28;20541;-53
2023/05/17 10:08:50;;;;;;;8.85;1.80;;;;;;;18.16;37.05;102978.59;5085263;28;20036;-47
2023/05/17 10:11:20;;;;;;;11.13;1.90;;;;;;;17.86;37.30;102974.56;5084908;28;20513;-46
2023/05/17 10:13:48;;;;;;;10.13;1.95;;;;;;;18.14;36.33;102974.13;5084276;28;20043;-46
2023/05/17 10:16:15;;;;;;;6.20;1.70;;;;;;;18.51;35.90;102984.38;5084526;28;20044;-47
2023/05/17 10:18:41;;;;;;;9.68;1.70;;;;;;;18.38;36.41;102986.81;5076360;28;20033;-46
2023/05/17 10:21:07;;;;;;;10.63;1.90;;;;;;;18.37;36.44;102985.03;5072075;28;20032;-44
2023/05/17 10:23:33;;;;;;;7.75;1.50;;;;;;;18.51;35.53;102994.06;5084600;28;20031;-45
2023/05/17 10:25:59;;;;;;;8.68;1.70;;;;;;;18.30;35.71;102986.69;5083571;28;20387;-48
2023/05/17 10:28:25;;;;;;;9.10;1.50;;;;;;;18.16;37.17;102975.06;5084147;28;20032;-43
2023/05/17 10:35:18;;;;;;;6.47;1.55;;;;;;;17.82;38.83;102974.50;5051151;27;20875;-49
2023/05/17 10:37:44;;;;;;;7.15;1.55;;;;;;;18.33;37.00;102986.75;5064482;28;20091;-45
2023/05/17 10:40:11;;;;;;;11.45;1.65;;;;;;;18.09;37.98;102979.34;5065651;28;20029;-49
2023/05/17 10:45:40;;;;;;;9.07;1.60;;;;;;;18.18;37.93;102982.13;5072487;27;20411;-48
2023/05/17 10:48:06;;;;;;;8.45;1.90;;;;;;;18.11;37.87;102979.38;5066134;28;20032;-46
2023/05/17 10:50:35;;;;;;;10.70;1.73;;;;;;;17.35;37.94;102989.44;5065470;28;20035;-45
2023/05/17 10:53:03;;;;;;;8.57;1.65;;;;;;;17.54;39.11;102992.41;5065264;28;20078;-47
2023/05/17 10:55:38;;;;;;;6.97;1.70;;;;;;;18.19;38.63;102985.66;5065566;28;20701;-44
2023/05/17 10:58:18;;;;;;;6.43;1.77;;;;;;;18.50;37.99;102989.63;5059287;28;20029;-45
2023/05/17 11:00:48;;;;;;;8.50;1.80;;;;;;;18.42;38.84;102993.94;5084366;28;20040;-47
2023/05/17 11:03:20;;;;;;;9.07;1.90;;;;;;;18.88;38.66;102991.06;5084246;28;20473;-45
2023/05/17 11:06:16;;;;;;;7.65;1.70;;;;;;;18.52;39.47;102985.28;5084598;28;20112;-46
2023/05/17 11:08:47;;;;;;;9.00;1.70;;;;;;;18.56;39.24;102985.34;5084694;28;20055;-45
2023/05/17 11:11:17;;;;;;;8.93;2.05;;;;;;;19.04;38.34;102984.22;5082899;28;20035;-49
2023/05/17 11:18:48;;;;;;;7.90;1.70;;;;;;;18.35;39.30;102994.72;5048161;28;20358;-46
2023/05/17 11:21:15;;;;;;;7.47;1.77;;;;;;;18.19;39.51;102986.53;5045853;28;20041;-46
2023/05/17 11:23:42;;;;;;;9.07;1.60;;;;;;;18.09;38.90;102991.66;5044149;28;20040;-47
2023/05/17 11:26:15;;;;;;;9.38;1.80;;;;;;;18.71;38.69;102981.16;5079918;28;20038;-44
2023/05/17 11:28:40;;;;;;;7.63;1.70;;;;;;;18.35;39.18;102992.06;5085661;28;20066;-47
2023/05/17 11:31:06;;;;;;;6.05;1.77;;;;;;;18.55;38.72;102987.97;5085741;28;20610;-44
2023/05/17 11:33:42;;;;;;;9.05;1.80;;;;;;;18.69;39.15;102988.16;5085547;28;20463;-46
2023/05/17 11:36:28;;;;;;;10.07;2.13;;;;;;;18.41;38.83;102998.31;5085330;28;20401;-46
2023/05/17 11:39:13;;;;;;;12.23;1.90;;;;;;;18.21;39.40;102989.22;5083228;28;20115;-45
2023/05/17 11:41:46;;;;;;;10.35;1.83;;;;;;;18.32;40.06;102995.53;5085430;28;20117;-46